Date,TemperatureHighF,TemperatureAvgF,TemperatureLowF,DewpointHighF,DewpointAvgF,DewpointLowF,HumidityHigh,HumidityAvg,HumidityLow,PressureMaxIn,PressureMinIn,WindSpeedMaxMPH,WindSpeedAvgMPH,GustSpeedMaxMPH,PrecipitationSumIn
2013-5-1,64.0,58.7,55.0,58.0,53.9,44.0,98,85,66,0.00,40.00,7,4,20,0.00
2013-5-2,71.0,59.0,52.0,56.0,51.1,44.0,98,78,42,0.00,40.00,5,2,13,0.00
2013-5-3,70.0,55.6,46.0,54.0,45.2,33.0,98,74,28,0.00,40.00,4,2,14,0.00
2013-5-4,62.0,52.2,45.0,52.0,47.9,44.0,98,86,61,0.00,40.00,6,-12,18,0.00
2013-5-5,63.0,52.5,43.0,57.0,49.1,42.0,98,89,67,0.00,40.00,7,2,17,0.00
2013-5-6,69.0,60.1,54.0,64.0,58.9,54.0,98,96,72,0.00,40.00,3,1,11,0.00
2013-5-7,74.0,63.9,56.0,64.0,58.5,51.0,98,86,46,0.00,40.00,3,0,9,0.00
2013-5-8,68.0,57.8,50.0,62.0,55.6,50.0,98,91,58,0.00,40.00,2,0,9,0.00
2013-5-9,83.0,64.2,50.0,62.0,53.7,49.0,98,75,33,0.00,40.00,6,1,15,0.00
2013-5-10,87.0,70.7,57.0,61.0,55.8,-99.9,98,67,35,0.00,40.00,6,1,16,0.00
2013-5-11,81.0,73.4,66.0,66.0,62.0,58.0,98,70,45,0.00,40.00,9,2,22,0.00
2013-5-12,73.0,64.5,54.0,67.0,44.8,-99.9,98,58,21,0.00,40.00,7,2,19,0.00
2013-5-13,67.0,53.6,40.0,42.0,31.7,24.0,95,49,20,0.00,40.00,6,-19,15,0.00
2013-5-14,72.0,55.2,39.0,42.0,35.2,29.0,97,54,22,0.00,40.00,6,1,15,0.00
2013-5-15,88.0,70.2,55.0,62.0,52.5,42.0,75,55,39,0.00,40.00,8,2,20,0.00
2013-5-16,89.0,69.2,66.0,66.0,39.2,-99.9,91,63,35,0.00,40.00,7,2,18,0.00
2013-5-17,89.0,73.7,63.0,66.0,52.8,-99.9,98,64,33,0.00,40.00,3,0,9,0.00
2013-5-18,72.0,66.1,60.0,69.0,63.0,46.0,98,92,41,0.00,40.00,3,0,7,0.00
2013-5-19,79.0,67.7,65.0,72.0,66.2,64.0,98,96,77,0.00,40.00,2,0,9,0.00
2013-5-20,81.0,70.7,64.0,73.0,67.7,63.0,98,91,65,0.00,40.00,2,-15,8,0.00
2013-5-21,85.0,73.5,67.0,74.0,69.2,67.0,98,88,56,0.00,40.00,5,1,11,0.00
2013-5-22,87.0,76.0,69.0,71.0,68.0,64.0,98,79,49,0.00,40.00,4,1,15,0.00
2013-5-23,86.0,74.1,67.0,70.0,67.2,60.0,98,82,42,0.00,40.00,4,1,14,0.00
2013-5-24,71.0,64.1,50.0,68.0,52.2,33.0,98,71,32,0.00,40.00,6,2,23,0.00
2013-5-25,72.0,55.2,41.0,47.0,36.3,29.0,88,55,23,0.00,40.00,7,2,15,0.00
2013-5-26,77.0,59.8,43.0,50.0,40.7,33.0,98,58,22,0.00,40.00,6,1,13,0.00
2013-5-27,80.0,64.1,49.0,62.0,52.0,48.0,98,70,35,0.00,40.00,7,1,13,0.00
2013-5-28,87.0,70.8,58.0,65.0,60.9,56.0,96,74,43,0.00,40.00,8,1,16,0.00
2013-5-29,89.0,76.2,64.0,66.0,63.7,59.0,98,69,39,0.00,40.00,8,2,18,0.00
2013-5-30,90.0,75.8,64.0,67.0,64.7,62.0,98,73,40,0.00,40.00,7,-14,13,0.00
2013-5-31,92.0,77.4,66.0,70.0,65.1,60.0,98,71,36,0.00,40.00,5,1,13,0.00